sensor_id;sensor_type;location;lat;lon;timestamp;P1;durP1;ratioP1;P2;durP2;ratioP2
21657;SDS011;10990;48.174;9.782;2024-01-30T00:02:10;9.77;;;5.53;;
21657;SDS011;10990;48.174;9.782;2024-01-30T00:04:36;11.10;;;6.43;;
21657;SDS011;10990;48.174;9.782;2024-01-30T00:07:02;8.97;;;5.47;;
21657;SDS011;10990;48.174;9.782;2024-01-30T00:09:29;11.83;;;6.20;;
21657;SDS011;10990;48.174;9.782;2024-01-30T00:11:55;9.90;;;6.40;;
21657;SDS011;10990;48.174;9.782;2024-01-30T00:14:24;10.53;;;5.97;;
21657;SDS011;10990;48.174;9.782;2024-01-30T00:16:50;10.23;;;5.93;;
21657;SDS011;10990;48.174;9.782;2024-01-30T00:19:16;11.17;;;6.27;;
21657;SDS011;10990;48.174;9.782;2024-01-30T00:21:42;12.13;;;6.57;;
21657;SDS011;10990;48.174;9.782;2024-01-30T00:24:08;11.30;;;6.20;;
21657;SDS011;10990;48.174;9.782;2024-01-30T00:26:34;11.90;;;6.60;;
21657;SDS011;10990;48.174;9.782;2024-01-30T00:29:00;13.37;;;7.23;;
21657;SDS011;10990;48.174;9.782;2024-01-30T00:31:29;10.17;;;6.23;;
21657;SDS011;10990;48.174;9.782;2024-01-30T00:33:55;13.70;;;7.17;;
21657;SDS011;10990;48.174;9.782;2024-01-30T00:36:21;14.10;;;7.53;;
21657;SDS011;10990;48.174;9.782;2024-01-30T00:38:47;11.60;;;7.03;;
21657;SDS011;10990;48.174;9.782;2024-01-30T00:41:13;12.33;;;6.83;;
21657;SDS011;10990;48.174;9.782;2024-01-30T00:43:39;10.67;;;6.60;;
21657;SDS011;10990;48.174;9.782;2024-01-30T00:46:05;12.80;;;7.03;;
21657;SDS011;10990;48.174;9.782;2024-01-30T00:48:34;10.33;;;6.43;;
21657;SDS011;10990;48.174;9.782;2024-01-30T00:51:00;12.97;;;6.73;;
21657;SDS011;10990;48.174;9.782;2024-01-30T00:53:26;12.80;;;6.60;;
21657;SDS011;10990;48.174;9.782;2024-01-30T00:55:52;11.43;;;6.60;;
21657;SDS011;10990;48.174;9.782;2024-01-30T00:58:18;10.17;;;6.27;;
21657;SDS011;10990;48.174;9.782;2024-01-30T01:00:44;11.07;;;6.30;;
21657;SDS011;10990;48.174;9.782;2024-01-30T01:03:10;9.60;;;5.90;;
21657;SDS011;10990;48.174;9.782;2024-01-30T01:05:39;11.07;;;6.30;;
21657;SDS011;10990;48.174;9.782;2024-01-30T01:08:05;10.43;;;5.63;;
21657;SDS011;10990;48.174;9.782;2024-01-30T01:10:32;10.77;;;6.13;;
21657;SDS011;10990;48.174;9.782;2024-01-30T01:12:58;10.43;;;6.27;;
21657;SDS011;10990;48.174;9.782;2024-01-30T01:15:24;9.70;;;5.63;;
21657;SDS011;10990;48.174;9.782;2024-01-30T01:17:50;11.13;;;6.13;;
21657;SDS011;10990;48.174;9.782;2024-01-30T01:20:16;11.43;;;6.00;;
21657;SDS011;10990;48.174;9.782;2024-01-30T01:22:45;11.10;;;6.10;;
21657;SDS011;10990;48.174;9.782;2024-01-30T01:25:11;10.43;;;6.20;;
21657;SDS011;10990;48.174;9.782;2024-01-30T01:27:37;10.47;;;6.07;;
21657;SDS011;10990;48.174;9.782;2024-01-30T01:30:04;11.37;;;6.43;;
21657;SDS011;10990;48.174;9.782;2024-01-30T01:32:30;10.17;;;6.10;;
21657;SDS011;10990;48.174;9.782;2024-01-30T01:34:56;10.83;;;6.00;;
21657;SDS011;10990;48.174;9.782;2024-01-30T01:37:23;9.70;;;5.63;;
21657;SDS011;10990;48.174;9.782;2024-01-30T01:39:51;10.83;;;5.90;;
21657;SDS011;10990;48.174;9.782;2024-01-30T01:42:18;11.07;;;6.27;;
21657;SDS011;10990;48.174;9.782;2024-01-30T01:44:44;10.13;;;5.83;;
21657;SDS011;10990;48.174;9.782;2024-01-30T01:47:10;10.60;;;5.83;;
21657;SDS011;10990;48.174;9.782;2024-01-30T01:49:36;10.40;;;6.20;;
21657;SDS011;10990;48.174;9.782;2024-01-30T01:52:03;12.47;;;6.13;;
21657;SDS011;10990;48.174;9.782;2024-01-30T01:54:30;11.50;;;6.53;;
21657;SDS011;10990;48.174;9.782;2024-01-30T01:57:00;11.37;;;6.30;;
21657;SDS011;10990;48.174;9.782;2024-01-30T01:59:26;10.57;;;5.97;;
21657;SDS011;10990;48.174;9.782;2024-01-30T02:01:53;11.17;;;6.10;;
21657;SDS011;10990;48.174;9.782;2024-01-30T02:04:21;10.00;;;5.97;;
21657;SDS011;10990;48.174;9.782;2024-01-30T02:06:47;11.73;;;6.43;;
21657;SDS011;10990;48.174;9.782;2024-01-30T02:09:13;12.27;;;6.40;;
21657;SDS011;10990;48.174;9.782;2024-01-30T02:11:39;10.53;;;6.00;;
21657;SDS011;10990;48.174;9.782;2024-01-30T02:14:08;10.73;;;6.27;;
21657;SDS011;10990;48.174;9.782;2024-01-30T02:16:34;11.20;;;6.13;;
21657;SDS011;10990;48.174;9.782;2024-01-30T02:19:00;11.47;;;6.10;;
21657;SDS011;10990;48.174;9.782;2024-01-30T02:21:29;11.33;;;5.83;;
21657;SDS011;10990;48.174;9.782;2024-01-30T02:23:55;10.97;;;6.20;;
21657;SDS011;10990;48.174;9.782;2024-01-30T02:26:24;11.53;;;6.27;;
21657;SDS011;10990;48.174;9.782;2024-01-30T02:28:50;9.63;;;5.87;;
21657;SDS011;10990;48.174;9.782;2024-01-30T02:31:18;9.83;;;5.77;;
21657;SDS011;10990;48.174;9.782;2024-01-30T02:33:44;12.57;;;6.57;;
21657;SDS011;10990;48.174;9.782;2024-01-30T02:36:10;11.97;;;6.27;;
21657;SDS011;10990;48.174;9.782;2024-01-30T02:38:39;11.90;;;6.60;;
21657;SDS011;10990;48.174;9.782;2024-01-30T02:41:05;10.97;;;6.07;;
21657;SDS011;10990;48.174;9.782;2024-01-30T02:43:31;11.47;;;6.10;;
21657;SDS011;10990;48.174;9.782;2024-01-30T02:45:57;11.33;;;6.27;;
21657;SDS011;10990;48.174;9.782;2024-01-30T02:48:24;12.17;;;6.50;;
21657;SDS011;10990;48.174;9.782;2024-01-30T02:50:50;10.47;;;6.47;;
21657;SDS011;10990;48.174;9.782;2024-01-30T02:53:16;12.43;;;6.60;;
21657;SDS011;10990;48.174;9.782;2024-01-30T02:55:44;13.50;;;7.10;;
21657;SDS011;10990;48.174;9.782;2024-01-30T02:58:11;10.67;;;6.63;;
21657;SDS011;10990;48.174;9.782;2024-01-30T03:00:37;11.43;;;6.77;;
21657;SDS011;10990;48.174;9.782;2024-01-30T03:03:03;10.47;;;6.17;;
21657;SDS011;10990;48.174;9.782;2024-01-30T03:05:30;11.40;;;6.63;;
21657;SDS011;10990;48.174;9.782;2024-01-30T03:07:56;12.93;;;7.10;;
21657;SDS011;10990;48.174;9.782;2024-01-30T03:10:22;14.00;;;7.43;;
21657;SDS011;10990;48.174;9.782;2024-01-30T03:12:51;12.27;;;7.03;;
21657;SDS011;10990;48.174;9.782;2024-01-30T03:15:17;12.80;;;6.80;;
21657;SDS011;10990;48.174;9.782;2024-01-30T03:17:43;13.83;;;7.67;;
21657;SDS011;10990;48.174;9.782;2024-01-30T03:20:10;14.43;;;7.60;;
21657;SDS011;10990;48.174;9.782;2024-01-30T03:22:37;13.80;;;7.70;;
21657;SDS011;10990;48.174;9.782;2024-01-30T03:25:03;12.57;;;7.20;;
21657;SDS011;10990;48.174;9.782;2024-01-30T03:27:30;16.40;;;7.77;;
21657;SDS011;10990;48.174;9.782;2024-01-30T03:29:58;14.27;;;7.93;;
21657;SDS011;10990;48.174;9.782;2024-01-30T03:32:24;14.17;;;7.40;;
21657;SDS011;10990;48.174;9.782;2024-01-30T03:34:51;13.57;;;6.83;;
21657;SDS011;10990;48.174;9.782;2024-01-30T03:37:17;14.07;;;7.23;;
21657;SDS011;10990;48.174;9.782;2024-01-30T03:39:43;14.67;;;7.90;;
21657;SDS011;10990;48.174;9.782;2024-01-30T03:42:09;13.07;;;7.60;;
21657;SDS011;10990;48.174;9.782;2024-01-30T03:44:35;14.27;;;7.67;;
21657;SDS011;10990;48.174;9.782;2024-01-30T03:47:04;14.33;;;7.63;;
21657;SDS011;10990;48.174;9.782;2024-01-30T03:49:30;14.70;;;7.97;;
21657;SDS011;10990;48.174;9.782;2024-01-30T03:51:56;12.87;;;6.83;;
21657;SDS011;10990;48.174;9.782;2024-01-30T03:54:22;14.83;;;7.90;;
21657;SDS011;10990;48.174;9.782;2024-01-30T03:56:48;12.37;;;7.30;;
21657;SDS011;10990;48.174;9.782;2024-01-30T03:59:16;13.63;;;7.07;;
21657;SDS011;10990;48.174;9.782;2024-01-30T04:01:42;15.60;;;7.60;;
21657;SDS011;10990;48.174;9.782;2024-01-30T04:04:14;16.83;;;8.60;;
21657;SDS011;10990;48.174;9.782;2024-01-30T04:06:40;16.40;;;8.10;;
21657;SDS011;10990;48.174;9.782;2024-01-30T04:09:06;15.87;;;8.73;;
21657;SDS011;10990;48.174;9.782;2024-01-30T04:11:32;15.33;;;8.20;;
21657;SDS011;10990;48.174;9.782;2024-01-30T04:13:58;13.80;;;7.90;;
21657;SDS011;10990;48.174;9.782;2024-01-30T04:16:24;14.80;;;7.90;;
21657;SDS011;10990;48.174;9.782;2024-01-30T04:18:50;17.90;;;9.43;;
21657;SDS011;10990;48.174;9.782;2024-01-30T04:21:20;17.23;;;9.10;;
21657;SDS011;10990;48.174;9.782;2024-01-30T04:23:46;16.60;;;9.20;;
21657;SDS011;10990;48.174;9.782;2024-01-30T04:26:12;16.50;;;8.30;;
21657;SDS011;10990;48.174;9.782;2024-01-30T04:28:38;17.17;;;8.80;;
21657;SDS011;10990;48.174;9.782;2024-01-30T04:31:04;16.77;;;8.90;;
21657;SDS011;10990;48.174;9.782;2024-01-30T04:33:30;19.63;;;9.73;;
21657;SDS011;10990;48.174;9.782;2024-01-30T04:35:56;17.20;;;9.40;;
21657;SDS011;10990;48.174;9.782;2024-01-30T04:38:24;17.03;;;9.43;;
21657;SDS011;10990;48.174;9.782;2024-01-30T04:40:50;14.77;;;8.87;;
21657;SDS011;10990;48.174;9.782;2024-01-30T04:43:16;17.23;;;9.30;;
21657;SDS011;10990;48.174;9.782;2024-01-30T04:45:42;17.77;;;9.17;;
21657;SDS011;10990;48.174;9.782;2024-01-30T04:48:08;16.60;;;9.30;;
21657;SDS011;10990;48.174;9.782;2024-01-30T04:50:34;19.17;;;10.37;;
21657;SDS011;10990;48.174;9.782;2024-01-30T04:53:00;19.23;;;10.87;;
21657;SDS011;10990;48.174;9.782;2024-01-30T04:55:29;18.67;;;10.73;;
21657;SDS011;10990;48.174;9.782;2024-01-30T04:57:55;18.33;;;10.43;;
21657;SDS011;10990;48.174;9.782;2024-01-30T05:00:21;20.10;;;10.73;;
21657;SDS011;10990;48.174;9.782;2024-01-30T05:02:47;20.53;;;10.10;;
21657;SDS011;10990;48.174;9.782;2024-01-30T05:05:13;20.90;;;10.93;;
21657;SDS011;10990;48.174;9.782;2024-01-30T05:07:40;21.33;;;10.93;;
21657;SDS011;10990;48.174;9.782;2024-01-30T05:10:07;20.53;;;10.77;;
21657;SDS011;10990;48.174;9.782;2024-01-30T05:15:21;19.27;;;10.27;;
21657;SDS011;10990;48.174;9.782;2024-01-30T05:17:47;22.00;;;10.53;;
21657;SDS011;10990;48.174;9.782;2024-01-30T05:20:13;17.53;;;9.77;;
21657;SDS011;10990;48.174;9.782;2024-01-30T05:22:39;18.87;;;9.50;;
21657;SDS011;10990;48.174;9.782;2024-01-30T05:25:05;18.57;;;9.27;;
21657;SDS011;10990;48.174;9.782;2024-01-30T05:27:32;16.77;;;8.93;;
21657;SDS011;10990;48.174;9.782;2024-01-30T05:29:58;15.60;;;8.40;;
21657;SDS011;10990;48.174;9.782;2024-01-30T05:32:26;15.70;;;7.87;;
21657;SDS011;10990;48.174;9.782;2024-01-30T05:34:52;13.53;;;7.77;;
21657;SDS011;10990;48.174;9.782;2024-01-30T05:37:18;15.17;;;8.03;;
21657;SDS011;10990;48.174;9.782;2024-01-30T05:39:44;13.43;;;7.80;;
21657;SDS011;10990;48.174;9.782;2024-01-30T05:42:10;14.77;;;8.53;;
21657;SDS011;10990;48.174;9.782;2024-01-30T05:44:36;17.97;;;8.47;;
21657;SDS011;10990;48.174;9.782;2024-01-30T05:47:02;17.13;;;8.70;;
21657;SDS011;10990;48.174;9.782;2024-01-30T05:49:30;14.40;;;8.03;;
21657;SDS011;10990;48.174;9.782;2024-01-30T05:51:56;15.47;;;8.07;;
21657;SDS011;10990;48.174;9.782;2024-01-30T05:54:22;15.17;;;7.60;;
21657;SDS011;10990;48.174;9.782;2024-01-30T05:56:48;15.33;;;7.60;;
21657;SDS011;10990;48.174;9.782;2024-01-30T05:59:14;14.90;;;8.30;;
21657;SDS011;10990;48.174;9.782;2024-01-30T06:01:45;13.97;;;7.83;;
21657;SDS011;10990;48.174;9.782;2024-01-30T06:04:11;13.77;;;7.47;;
21657;SDS011;10990;48.174;9.782;2024-01-30T06:06:39;13.47;;;7.70;;
21657;SDS011;10990;48.174;9.782;2024-01-30T06:09:05;14.27;;;7.43;;
21657;SDS011;10990;48.174;9.782;2024-01-30T06:11:31;11.43;;;6.50;;
21657;SDS011;10990;48.174;9.782;2024-01-30T06:13:57;13.90;;;7.10;;
21657;SDS011;10990;48.174;9.782;2024-01-30T06:16:23;13.37;;;6.57;;
21657;SDS011;10990;48.174;9.782;2024-01-30T06:18:49;12.23;;;6.43;;
21657;SDS011;10990;48.174;9.782;2024-01-30T06:21:15;13.20;;;6.70;;
21657;SDS011;10990;48.174;9.782;2024-01-30T06:23:44;13.63;;;6.97;;
21657;SDS011;10990;48.174;9.782;2024-01-30T06:26:10;11.57;;;6.63;;
21657;SDS011;10990;48.174;9.782;2024-01-30T06:28:35;12.47;;;6.70;;
21657;SDS011;10990;48.174;9.782;2024-01-30T06:31:01;12.87;;;7.37;;
21657;SDS011;10990;48.174;9.782;2024-01-30T06:33:27;13.77;;;7.20;;
21657;SDS011;10990;48.174;9.782;2024-01-30T06:35:53;13.37;;;6.73;;
21657;SDS011;10990;48.174;9.782;2024-01-30T06:38:19;16.37;;;7.73;;
21657;SDS011;10990;48.174;9.782;2024-01-30T06:40:47;19.23;;;8.30;;
21657;SDS011;10990;48.174;9.782;2024-01-30T06:43:13;17.37;;;7.87;;
21657;SDS011;10990;48.174;9.782;2024-01-30T06:45:39;16.37;;;8.17;;
21657;SDS011;10990;48.174;9.782;2024-01-30T06:48:07;15.47;;;7.30;;
21657;SDS011;10990;48.174;9.782;2024-01-30T06:50:33;18.23;;;8.13;;
21657;SDS011;10990;48.174;9.782;2024-01-30T06:52:59;17.93;;;8.73;;
21657;SDS011;10990;48.174;9.782;2024-01-30T06:55:25;16.50;;;8.13;;
21657;SDS011;10990;48.174;9.782;2024-01-30T06:57:54;16.83;;;8.07;;
21657;SDS011;10990;48.174;9.782;2024-01-30T07:00:20;16.47;;;8.33;;
21657;SDS011;10990;48.174;9.782;2024-01-30T07:02:46;15.93;;;7.90;;
21657;SDS011;10990;48.174;9.782;2024-01-30T07:05:12;16.87;;;8.50;;
21657;SDS011;10990;48.174;9.782;2024-01-30T07:07:38;17.63;;;8.30;;
21657;SDS011;10990;48.174;9.782;2024-01-30T07:10:04;15.43;;;8.23;;
21657;SDS011;10990;48.174;9.782;2024-01-30T07:12:31;18.37;;;9.27;;
21657;SDS011;10990;48.174;9.782;2024-01-30T07:15:00;16.57;;;8.97;;
21657;SDS011;10990;48.174;9.782;2024-01-30T07:17:26;21.57;;;9.77;;
21657;SDS011;10990;48.174;9.782;2024-01-30T07:19:52;21.73;;;11.63;;
21657;SDS011;10990;48.174;9.782;2024-01-30T07:22:17;20.37;;;10.87;;
21657;SDS011;10990;48.174;9.782;2024-01-30T07:24:43;21.50;;;11.60;;
21657;SDS011;10990;48.174;9.782;2024-01-30T07:27:09;21.43;;;11.00;;
21657;SDS011;10990;48.174;9.782;2024-01-30T07:29:35;18.80;;;9.63;;
21657;SDS011;10990;48.174;9.782;2024-01-30T07:32:04;18.13;;;10.10;;
21657;SDS011;10990;48.174;9.782;2024-01-30T07:34:30;18.70;;;9.77;;
21657;SDS011;10990;48.174;9.782;2024-01-30T07:36:56;25.10;;;12.00;;
21657;SDS011;10990;48.174;9.782;2024-01-30T07:39:22;24.47;;;12.30;;
21657;SDS011;10990;48.174;9.782;2024-01-30T07:41:48;20.53;;;10.53;;
21657;SDS011;10990;48.174;9.782;2024-01-30T07:44:14;22.17;;;11.30;;
21657;SDS011;10990;48.174;9.782;2024-01-30T07:46:40;21.73;;;11.00;;
21657;SDS011;10990;48.174;9.782;2024-01-30T07:49:08;25.83;;;12.27;;
21657;SDS011;10990;48.174;9.782;2024-01-30T07:51:34;23.03;;;11.20;;
21657;SDS011;10990;48.174;9.782;2024-01-30T07:54:00;22.40;;;11.63;;
21657;SDS011;10990;48.174;9.782;2024-01-30T07:56:26;28.50;;;13.47;;
21657;SDS011;10990;48.174;9.782;2024-01-30T07:58:52;29.23;;;13.70;;
21657;SDS011;10990;48.174;9.782;2024-01-30T08:01:18;33.53;;;15.47;;
21657;SDS011;10990;48.174;9.782;2024-01-30T08:03:44;35.77;;;16.97;;
21657;SDS011;10990;48.174;9.782;2024-01-30T08:06:13;44.13;;;19.13;;
21657;SDS011;10990;48.174;9.782;2024-01-30T08:08:39;45.43;;;20.83;;
21657;SDS011;10990;48.174;9.782;2024-01-30T08:11:05;47.40;;;20.40;;
21657;SDS011;10990;48.174;9.782;2024-01-30T08:13:31;43.83;;;18.87;;
21657;SDS011;10990;48.174;9.782;2024-01-30T08:15:56;38.87;;;17.80;;
21657;SDS011;10990;48.174;9.782;2024-01-30T08:18:22;34.93;;;16.57;;
21657;SDS011;10990;48.174;9.782;2024-01-30T08:20:48;27.87;;;14.20;;
21657;SDS011;10990;48.174;9.782;2024-01-30T08:23:17;34.07;;;15.90;;
21657;SDS011;10990;48.174;9.782;2024-01-30T08:25:43;26.37;;;12.93;;
21657;SDS011;10990;48.174;9.782;2024-01-30T08:28:09;19.97;;;11.40;;
21657;SDS011;10990;48.174;9.782;2024-01-30T08:30:34;19.83;;;11.73;;
21657;SDS011;10990;48.174;9.782;2024-01-30T08:33:00;18.57;;;10.53;;
21657;SDS011;10990;48.174;9.782;2024-01-30T08:35:26;18.17;;;10.50;;
21657;SDS011;10990;48.174;9.782;2024-01-30T08:37:52;16.33;;;10.10;;
21657;SDS011;10990;48.174;9.782;2024-01-30T08:40:21;17.33;;;9.93;;
21657;SDS011;10990;48.174;9.782;2024-01-30T08:42:46;23.23;;;12.63;;
21657;SDS011;10990;48.174;9.782;2024-01-30T08:45:12;22.50;;;12.40;;
21657;SDS011;10990;48.174;9.782;2024-01-30T08:47:38;20.83;;;12.03;;
21657;SDS011;10990;48.174;9.782;2024-01-30T08:50:06;19.60;;;11.57;;
21657;SDS011;10990;48.174;9.782;2024-01-30T08:52:33;16.80;;;10.50;;
21657;SDS011;10990;48.174;9.782;2024-01-30T08:54:58;16.57;;;10.23;;
21657;SDS011;10990;48.174;9.782;2024-01-30T08:57:27;16.73;;;9.83;;
21657;SDS011;10990;48.174;9.782;2024-01-30T08:59:53;15.47;;;9.23;;
21657;SDS011;10990;48.174;9.782;2024-01-30T09:02:19;16.93;;;10.10;;
21657;SDS011;10990;48.174;9.782;2024-01-30T09:04:46;16.93;;;10.07;;
21657;SDS011;10990;48.174;9.782;2024-01-30T09:07:11;20.23;;;11.03;;
21657;SDS011;10990;48.174;9.782;2024-01-30T09:09:37;18.63;;;11.30;;
21657;SDS011;10990;48.174;9.782;2024-01-30T09:12:04;18.33;;;11.50;;
21657;SDS011;10990;48.174;9.782;2024-01-30T09:14:33;16.70;;;10.13;;
21657;SDS011;10990;48.174;9.782;2024-01-30T09:16:58;17.27;;;10.20;;
21657;SDS011;10990;48.174;9.782;2024-01-30T09:19:24;17.10;;;10.20;;
21657;SDS011;10990;48.174;9.782;2024-01-30T09:21:50;17.20;;;10.83;;
21657;SDS011;10990;48.174;9.782;2024-01-30T09:24:16;17.30;;;10.77;;
21657;SDS011;10990;48.174;9.782;2024-01-30T09:26:42;16.93;;;9.80;;
21657;SDS011;10990;48.174;9.782;2024-01-30T09:29:08;17.63;;;9.63;;
21657;SDS011;10990;48.174;9.782;2024-01-30T09:31:36;13.87;;;8.80;;
21657;SDS011;10990;48.174;9.782;2024-01-30T09:34:02;14.93;;;8.70;;
21657;SDS011;10990;48.174;9.782;2024-01-30T09:36:28;14.17;;;8.53;;
21657;SDS011;10990;48.174;9.782;2024-01-30T09:38:54;13.03;;;8.10;;
21657;SDS011;10990;48.174;9.782;2024-01-30T09:41:20;14.17;;;8.60;;
21657;SDS011;10990;48.174;9.782;2024-01-30T09:43:49;13.83;;;8.30;;
21657;SDS011;10990;48.174;9.782;2024-01-30T09:46:17;13.73;;;8.07;;
21657;SDS011;10990;48.174;9.782;2024-01-30T09:48:45;14.07;;;8.67;;
21657;SDS011;10990;48.174;9.782;2024-01-30T09:51:11;13.70;;;9.50;;
21657;SDS011;10990;48.174;9.782;2024-01-30T09:53:40;15.43;;;8.97;;
21657;SDS011;10990;48.174;9.782;2024-01-30T09:56:07;15.63;;;8.83;;
21657;SDS011;10990;48.174;9.782;2024-01-30T09:58:33;13.63;;;8.77;;
21657;SDS011;10990;48.174;9.782;2024-01-30T10:00:58;13.80;;;9.43;;
21657;SDS011;10990;48.174;9.782;2024-01-30T10:03:24;13.80;;;8.73;;
21657;SDS011;10990;48.174;9.782;2024-01-30T10:05:53;12.97;;;8.23;;
21657;SDS011;10990;48.174;9.782;2024-01-30T10:08:21;13.57;;;8.48;;
21657;SDS011;10990;48.174;9.782;2024-01-30T10:10:47;11.02;;;7.53;;
21657;SDS011;10990;48.174;9.782;2024-01-30T10:13:14;13.98;;;7.70;;
21657;SDS011;10990;48.174;9.782;2024-01-30T10:15:40;11.32;;;7.40;;
21657;SDS011;10990;48.174;9.782;2024-01-30T10:18:07;10.70;;;7.10;;
21657;SDS011;10990;48.174;9.782;2024-01-30T10:20:33;12.02;;;7.15;;
21657;SDS011;10990;48.174;9.782;2024-01-30T10:23:02;10.32;;;7.05;;
21657;SDS011;10990;48.174;9.782;2024-01-30T10:25:28;11.23;;;7.10;;
21657;SDS011;10990;48.174;9.782;2024-01-30T10:27:55;11.90;;;8.52;;
21657;SDS011;10990;48.174;9.782;2024-01-30T10:30:21;11.02;;;7.68;;
21657;SDS011;10990;48.174;9.782;2024-01-30T10:32:48;12.27;;;7.57;;
21657;SDS011;10990;48.174;9.782;2024-01-30T10:35:14;11.00;;;7.78;;
21657;SDS011;10990;48.174;9.782;2024-01-30T10:37:41;12.20;;;7.72;;
21657;SDS011;10990;48.174;9.782;2024-01-30T10:40:12;11.73;;;7.78;;
21657;SDS011;10990;48.174;9.782;2024-01-30T10:42:40;8.68;;;5.88;;
21657;SDS011;10990;48.174;9.782;2024-01-30T10:45:09;9.82;;;6.32;;
21657;SDS011;10990;48.174;9.782;2024-01-30T10:47:36;9.48;;;6.10;;
21657;SDS011;10990;48.174;9.782;2024-01-30T10:50:02;10.23;;;5.88;;
21657;SDS011;10990;48.174;9.782;2024-01-30T10:52:28;9.57;;;6.22;;
21657;SDS011;10990;48.174;9.782;2024-01-30T10:54:55;8.07;;;5.75;;
21657;SDS011;10990;48.174;9.782;2024-01-30T10:57:24;9.50;;;6.30;;
21657;SDS011;10990;48.174;9.782;2024-01-30T10:59:51;8.45;;;5.38;;
21657;SDS011;10990;48.174;9.782;2024-01-30T11:02:18;10.07;;;6.05;;
21657;SDS011;10990;48.174;9.782;2024-01-30T11:04:45;8.38;;;5.82;;
21657;SDS011;10990;48.174;9.782;2024-01-30T11:07:14;13.40;;;8.05;;
21657;SDS011;10990;48.174;9.782;2024-01-30T11:09:40;14.85;;;8.30;;
21657;SDS011;10990;48.174;9.782;2024-01-30T11:12:13;14.98;;;8.93;;
21657;SDS011;10990;48.174;9.782;2024-01-30T11:14:41;16.10;;;9.43;;
21657;SDS011;10990;48.174;9.782;2024-01-30T11:17:07;16.67;;;9.60;;
21657;SDS011;10990;48.174;9.782;2024-01-30T11:19:35;14.23;;;8.35;;
21657;SDS011;10990;48.174;9.782;2024-01-30T11:22:01;14.57;;;9.10;;
21657;SDS011;10990;48.174;9.782;2024-01-30T11:24:27;15.17;;;9.27;;
21657;SDS011;10990;48.174;9.782;2024-01-30T11:26:55;15.87;;;9.50;;
21657;SDS011;10990;48.174;9.782;2024-01-30T11:29:24;15.10;;;9.77;;
21657;SDS011;10990;48.174;9.782;2024-01-30T11:31:56;14.97;;;10.10;;
21657;SDS011;10990;48.174;9.782;2024-01-30T11:34:23;19.50;;;10.83;;
21657;SDS011;10990;48.174;9.782;2024-01-30T11:36:51;15.90;;;9.97;;
21657;SDS011;10990;48.174;9.782;2024-01-30T11:39:18;16.10;;;10.07;;
21657;SDS011;10990;48.174;9.782;2024-01-30T11:41:45;16.73;;;9.43;;
21657;SDS011;10990;48.174;9.782;2024-01-30T11:44:13;17.10;;;9.27;;
21657;SDS011;10990;48.174;9.782;2024-01-30T11:46:40;12.70;;;8.60;;
21657;SDS011;10990;48.174;9.782;2024-01-30T11:49:09;15.70;;;8.93;;
21657;SDS011;10990;48.174;9.782;2024-01-30T11:51:35;11.27;;;7.80;;
21657;SDS011;10990;48.174;9.782;2024-01-30T11:54:01;11.60;;;7.47;;
21657;SDS011;10990;48.174;9.782;2024-01-30T11:56:27;10.43;;;6.33;;
21657;SDS011;10990;48.174;9.782;2024-01-30T11:58:53;11.53;;;6.80;;
21657;SDS011;10990;48.174;9.782;2024-01-30T12:01:19;10.33;;;7.30;;
21657;SDS011;10990;48.174;9.782;2024-01-30T12:03:49;12.80;;;8.10;;
21657;SDS011;10990;48.174;9.782;2024-01-30T12:06:18;12.80;;;7.60;;
21657;SDS011;10990;48.174;9.782;2024-01-30T12:08:54;14.30;;;8.27;;
21657;SDS011;10990;48.174;9.782;2024-01-30T12:11:22;12.37;;;8.00;;
21657;SDS011;10990;48.174;9.782;2024-01-30T12:13:48;14.03;;;7.93;;
21657;SDS011;10990;48.174;9.782;2024-01-30T12:16:14;13.43;;;8.17;;
21657;SDS011;10990;48.174;9.782;2024-01-30T12:18:40;13.43;;;7.60;;
21657;SDS011;10990;48.174;9.782;2024-01-30T12:21:06;13.80;;;8.40;;
21657;SDS011;10990;48.174;9.782;2024-01-30T12:23:35;12.67;;;8.27;;
21657;SDS011;10990;48.174;9.782;2024-01-30T12:26:01;13.40;;;8.33;;
21657;SDS011;10990;48.174;9.782;2024-01-30T12:28:28;13.27;;;8.47;;
21657;SDS011;10990;48.174;9.782;2024-01-30T12:30:55;11.90;;;8.07;;
21657;SDS011;10990;48.174;9.782;2024-01-30T12:33:21;15.50;;;9.07;;
21657;SDS011;10990;48.174;9.782;2024-01-30T12:35:50;13.50;;;8.90;;
21657;SDS011;10990;48.174;9.782;2024-01-30T12:38:16;13.10;;;8.40;;
21657;SDS011;10990;48.174;9.782;2024-01-30T12:40:45;13.53;;;8.43;;
21657;SDS011;10990;48.174;9.782;2024-01-30T12:43:10;14.27;;;8.90;;
21657;SDS011;10990;48.174;9.782;2024-01-30T12:45:36;12.70;;;8.33;;
21657;SDS011;10990;48.174;9.782;2024-01-30T12:48:02;15.40;;;8.87;;
21657;SDS011;10990;48.174;9.782;2024-01-30T12:50:29;14.80;;;8.80;;
21657;SDS011;10990;48.174;9.782;2024-01-30T12:52:54;17.00;;;9.30;;
21657;SDS011;10990;48.174;9.782;2024-01-30T12:55:20;14.27;;;9.27;;
21657;SDS011;10990;48.174;9.782;2024-01-30T12:57:49;16.80;;;9.80;;
21657;SDS011;10990;48.174;9.782;2024-01-30T13:00:15;13.63;;;8.73;;
21657;SDS011;10990;48.174;9.782;2024-01-30T13:02:41;14.20;;;9.23;;
21657;SDS011;10990;48.174;9.782;2024-01-30T13:05:07;13.90;;;8.80;;
21657;SDS011;10990;48.174;9.782;2024-01-30T13:07:33;16.60;;;9.13;;
21657;SDS011;10990;48.174;9.782;2024-01-30T13:09:59;13.90;;;8.70;;
21657;SDS011;10990;48.174;9.782;2024-01-30T13:12:25;15.43;;;9.27;;
21657;SDS011;10990;48.174;9.782;2024-01-30T13:14:53;14.40;;;8.90;;
21657;SDS011;10990;48.174;9.782;2024-01-30T13:17:19;17.00;;;9.77;;
21657;SDS011;10990;48.174;9.782;2024-01-30T13:19:45;14.57;;;8.90;;
21657;SDS011;10990;48.174;9.782;2024-01-30T13:22:11;18.53;;;10.20;;
21657;SDS011;10990;48.174;9.782;2024-01-30T13:24:37;15.73;;;10.13;;
21657;SDS011;10990;48.174;9.782;2024-01-30T13:27:03;14.40;;;9.30;;
21657;SDS011;10990;48.174;9.782;2024-01-30T13:29:29;15.27;;;9.50;;
21657;SDS011;10990;48.174;9.782;2024-01-30T13:31:57;14.83;;;9.73;;
21657;SDS011;10990;48.174;9.782;2024-01-30T13:34:23;18.00;;;9.50;;
21657;SDS011;10990;48.174;9.782;2024-01-30T13:36:49;15.37;;;9.40;;
21657;SDS011;10990;48.174;9.782;2024-01-30T13:39:15;17.77;;;9.23;;
21657;SDS011;10990;48.174;9.782;2024-01-30T13:41:41;15.30;;;9.17;;
21657;SDS011;10990;48.174;9.782;2024-01-30T13:44:07;13.97;;;9.20;;
21657;SDS011;10990;48.174;9.782;2024-01-30T13:46:34;16.70;;;9.30;;
21657;SDS011;10990;48.174;9.782;2024-01-30T13:49:02;17.87;;;9.83;;
21657;SDS011;10990;48.174;9.782;2024-01-30T13:51:28;17.60;;;10.00;;
21657;SDS011;10990;48.174;9.782;2024-01-30T13:53:54;17.07;;;11.03;;
21657;SDS011;10990;48.174;9.782;2024-01-30T13:56:20;13.87;;;9.20;;
21657;SDS011;10990;48.174;9.782;2024-01-30T13:58:47;17.07;;;9.37;;
21657;SDS011;10990;48.174;9.782;2024-01-30T14:01:13;14.10;;;8.97;;
21657;SDS011;10990;48.174;9.782;2024-01-30T14:03:39;14.10;;;9.00;;
21657;SDS011;10990;48.174;9.782;2024-01-30T14:06:08;15.53;;;9.47;;
21657;SDS011;10990;48.174;9.782;2024-01-30T14:08:34;15.40;;;9.73;;
21657;SDS011;10990;48.174;9.782;2024-01-30T14:10:59;14.20;;;8.90;;
21657;SDS011;10990;48.174;9.782;2024-01-30T14:13:25;15.30;;;9.00;;
21657;SDS011;10990;48.174;9.782;2024-01-30T14:15:51;14.63;;;8.93;;
21657;SDS011;10990;48.174;9.782;2024-01-30T14:18:17;13.03;;;8.60;;
21657;SDS011;10990;48.174;9.782;2024-01-30T14:20:43;14.60;;;9.33;;
21657;SDS011;10990;48.174;9.782;2024-01-30T14:23:12;17.10;;;9.93;;
21657;SDS011;10990;48.174;9.782;2024-01-30T14:25:38;13.87;;;8.70;;
21657;SDS011;10990;48.174;9.782;2024-01-30T14:28:04;14.27;;;8.90;;
21657;SDS011;10990;48.174;9.782;2024-01-30T14:30:30;18.70;;;11.30;;
21657;SDS011;10990;48.174;9.782;2024-01-30T14:32:56;18.20;;;11.03;;